EZY61JA EGKK-LGSK
Flight info
| Callsign | EZY61JA |
|---|---|
| Flight time | N/A |
| Altitude | 35000 |
| Route | ODVIK Y311 DVR UL9 KONAN DCT KOK DCT RITAX DCT EDISA DCT KUNOD DCT GEDSO DCT GIMIX DCT GORPA DCT DEVUL DCT LIKVI DCT REMSO DCT MEDUX UM867 KOGAT DCT ERANA DCT TSL UL617 IBIDI |
| Aircraft | A320/M-SDE3FGHIRWY/LB1 |
Departure
| Time | N/A |
|---|---|
| Airport | London Gatwick Airport (EGKK) |
Arrival
| Time | 2026-05-04 14:08 |
|---|---|
| Airport | Skiathos Island National Airport (LGSK) |
| Time | Latitude | Longitude | Altitude | Speed | Heading |
|---|---|---|---|---|---|
| 2026-05-04 12:29 | 47.24718 | 11.58272 | 34984 ft | 455 kts | 133° |
| 2026-05-04 12:29 | 47.22669 | 11.61814 | 34980 ft | 455 kts | 133° |
| 2026-05-04 12:30 | 47.14423 | 11.76033 | 34994 ft | 455 kts | 134° |
| 2026-05-04 12:30 | 47.10323 | 11.83111 | 35023 ft | 456 kts | 133° |
| 2026-05-04 12:31 | 47.06915 | 11.90921 | 35027 ft | 461 kts | 116° |
| 2026-05-04 12:31 | 47.04388 | 11.99573 | 35032 ft | 461 kts | 115° |
| 2026-05-04 12:32 | 47.00589 | 12.12524 | 35033 ft | 461 kts | 116° |
| 2026-05-04 12:33 | 46.98042 | 12.21150 | 35072 ft | 461 kts | 116° |
| 2026-05-04 12:33 | 46.95509 | 12.29701 | 35079 ft | 462 kts | 116° |
| 2026-05-04 12:34 | 46.92958 | 12.38314 | 35071 ft | 461 kts | 115° |
| 2026-05-04 12:34 | 46.90400 | 12.46927 | 35076 ft | 461 kts | 116° |
| 2026-05-04 12:35 | 46.87828 | 12.55504 | 35071 ft | 461 kts | 116° |
| 2026-05-04 12:35 | 46.85262 | 12.64028 | 35068 ft | 461 kts | 116° |
| 2026-05-04 12:36 | 46.82685 | 12.72602 | 35049 ft | 461 kts | 116° |
| 2026-05-04 12:36 | 46.80101 | 12.81184 | 35056 ft | 462 kts | 116° |
| 2026-05-04 12:37 | 46.77501 | 12.89746 | 35062 ft | 462 kts | 116° |
| 2026-05-04 12:37 | 46.74894 | 12.98300 | 35065 ft | 462 kts | 116° |
| 2026-05-04 12:38 | 46.72306 | 13.06795 | 35067 ft | 462 kts | 116° |
| 2026-05-04 12:38 | 46.69693 | 13.15357 | 35064 ft | 463 kts | 116° |
| 2026-05-04 12:39 | 46.67061 | 13.23911 | 35059 ft | 463 kts | 116° |
| 2026-05-04 12:39 | 46.64418 | 13.32464 | 35066 ft | 463 kts | 116° |
| 2026-05-04 12:40 | 46.61788 | 13.40958 | 35064 ft | 464 kts | 116° |
| 2026-05-04 12:40 | 46.59141 | 13.49514 | 35057 ft | 464 kts | 115° |
| 2026-05-04 12:41 | 46.56473 | 13.58078 | 35052 ft | 466 kts | 116° |
| 2026-05-04 12:41 | 46.53786 | 13.66664 | 35053 ft | 468 kts | 116° |
| 2026-05-04 12:42 | 46.50724 | 13.74968 | 35046 ft | 466 kts | 125° |
| 2026-05-04 12:42 | 46.47221 | 13.82817 | 35040 ft | 466 kts | 124° |
| 2026-05-04 12:43 | 46.43686 | 13.90728 | 35057 ft | 468 kts | 125° |
| 2026-05-04 12:43 | 46.40148 | 13.98642 | 35055 ft | 468 kts | 124° |
| 2026-05-04 12:44 | 46.36619 | 14.06504 | 35058 ft | 469 kts | 125° |
| 2026-05-04 12:44 | 46.33062 | 14.14409 | 35065 ft | 469 kts | 124° |
| 2026-05-04 12:45 | 46.29492 | 14.22309 | 35074 ft | 469 kts | 124° |
| 2026-05-04 12:45 | 46.25914 | 14.30190 | 35072 ft | 469 kts | 124° |
| 2026-05-04 12:46 | 46.22332 | 14.38065 | 35077 ft | 469 kts | 124° |
| 2026-05-04 12:46 | 46.18774 | 14.45875 | 35079 ft | 469 kts | 124° |
| 2026-05-04 12:47 | 46.15184 | 14.53739 | 35083 ft | 469 kts | 124° |
| 2026-05-04 12:47 | 46.11598 | 14.61574 | 35073 ft | 469 kts | 124° |
| 2026-05-04 12:48 | 46.07983 | 14.69440 | 35080 ft | 469 kts | 124° |
| 2026-05-04 12:48 | 46.04398 | 14.77226 | 35074 ft | 469 kts | 124° |
| 2026-05-04 12:49 | 46.00785 | 14.85030 | 35073 ft | 469 kts | 124° |
| 2026-05-04 12:49 | 45.97161 | 14.92849 | 35065 ft | 469 kts | 124° |
| 2026-05-04 12:50 | 45.93546 | 15.00637 | 35059 ft | 469 kts | 124° |
| 2026-05-04 12:50 | 45.89917 | 15.08435 | 35062 ft | 470 kts | 124° |
| 2026-05-04 12:51 | 45.86290 | 15.16192 | 35062 ft | 470 kts | 124° |
| 2026-05-04 12:51 | 45.82655 | 15.23945 | 35054 ft | 470 kts | 124° |
| 2026-05-04 12:52 | 45.78998 | 15.31723 | 35049 ft | 470 kts | 124° |
| 2026-05-04 12:52 | 45.75089 | 15.39157 | 35050 ft | 469 kts | 130° |
| 2026-05-04 12:53 | 45.70927 | 15.46313 | 35057 ft | 469 kts | 130° |
| 2026-05-04 12:53 | 45.66739 | 15.53500 | 35059 ft | 470 kts | 130° |
| 2026-05-04 12:54 | 45.62563 | 15.60647 | 35055 ft | 470 kts | 130° |
| 2026-05-04 12:54 | 45.58387 | 15.67790 | 35061 ft | 470 kts | 130° |
| 2026-05-04 12:55 | 45.54201 | 15.74940 | 35045 ft | 469 kts | 130° |
| 2026-05-04 12:55 | 45.50002 | 15.82079 | 35047 ft | 470 kts | 130° |
| 2026-05-04 12:56 | 45.45812 | 15.89170 | 35063 ft | 470 kts | 130° |
| 2026-05-04 12:56 | 45.41599 | 15.96272 | 35044 ft | 470 kts | 130° |
| 2026-05-04 12:57 | 45.37388 | 16.03370 | 35041 ft | 471 kts | 130° |
| 2026-05-04 12:57 | 45.33155 | 16.10494 | 35046 ft | 472 kts | 130° |
| 2026-05-04 12:58 | 45.28932 | 16.17582 | 35059 ft | 472 kts | 130° |
| 2026-05-04 12:58 | 45.24682 | 16.24714 | 35058 ft | 472 kts | 130° |
| 2026-05-04 12:59 | 45.20416 | 16.31831 | 35070 ft | 472 kts | 130° |
| 2026-05-04 12:59 | 45.16181 | 16.38866 | 35054 ft | 472 kts | 130° |
| 2026-05-04 13:00 | 45.11894 | 16.45971 | 35056 ft | 473 kts | 130° |
| 2026-05-04 13:00 | 45.07576 | 16.52906 | 35064 ft | 474 kts | 131° |
| 2026-05-04 13:01 | 45.03138 | 16.59859 | 35072 ft | 474 kts | 131° |
| 2026-05-04 13:01 | 44.98751 | 16.66731 | 35072 ft | 473 kts | 131° |
| 2026-05-04 13:02 | 44.94364 | 16.73640 | 35085 ft | 473 kts | 131° |
| 2026-05-04 13:02 | 44.89968 | 16.80569 | 35073 ft | 473 kts | 131° |
| 2026-05-04 13:03 | 44.85598 | 16.87433 | 35071 ft | 473 kts | 131° |
| 2026-05-04 13:03 | 44.81191 | 16.94340 | 35081 ft | 474 kts | 131° |
| 2026-05-04 13:04 | 44.76772 | 17.01229 | 35080 ft | 474 kts | 131° |
| 2026-05-04 13:04 | 44.72379 | 17.08049 | 35083 ft | 474 kts | 131° |
| 2026-05-04 13:05 | 44.67946 | 17.14928 | 35092 ft | 474 kts | 131° |
| 2026-05-04 13:05 | 44.63545 | 17.21762 | 35076 ft | 474 kts | 131° |
| 2026-05-04 13:06 | 44.59110 | 17.28619 | 35094 ft | 474 kts | 131° |
| 2026-05-04 13:06 | 44.54690 | 17.35429 | 35095 ft | 474 kts | 131° |
| 2026-05-04 13:07 | 44.50254 | 17.42240 | 35096 ft | 474 kts | 131° |
| 2026-05-04 13:07 | 44.45833 | 17.49032 | 35093 ft | 473 kts | 131° |
| 2026-05-04 13:08 | 44.41397 | 17.55842 | 35099 ft | 473 kts | 131° |
| 2026-05-04 13:08 | 44.36950 | 17.62626 | 35098 ft | 474 kts | 131° |
| 2026-05-04 13:09 | 44.32480 | 17.69426 | 35095 ft | 474 kts | 131° |
| 2026-05-04 13:09 | 44.28053 | 17.76160 | 35099 ft | 474 kts | 131° |
| 2026-05-04 13:10 | 44.23589 | 17.82931 | 35095 ft | 474 kts | 131° |
| 2026-05-04 13:10 | 44.19135 | 17.89674 | 35098 ft | 474 kts | 131° |
| 2026-05-04 13:11 | 44.14676 | 17.96399 | 35091 ft | 474 kts | 131° |
| 2026-05-04 13:11 | 44.10203 | 18.03125 | 35087 ft | 475 kts | 132° |
| 2026-05-04 13:12 | 44.05698 | 18.09868 | 35093 ft | 475 kts | 131° |
| 2026-05-04 13:12 | 44.01191 | 18.16591 | 35093 ft | 476 kts | 131° |
| 2026-05-04 13:13 | 43.96708 | 18.23269 | 35094 ft | 476 kts | 131° |
| 2026-05-04 13:13 | 43.92188 | 18.29983 | 35093 ft | 476 kts | 132° |
| 2026-05-04 13:14 | 43.87662 | 18.36693 | 35084 ft | 476 kts | 132° |
| 2026-05-04 13:14 | 43.83128 | 18.43396 | 35079 ft | 477 kts | 132° |
| 2026-05-04 13:15 | 43.78623 | 18.50053 | 35078 ft | 477 kts | 132° |
| 2026-05-04 13:15 | 43.74075 | 18.56752 | 35088 ft | 478 kts | 132° |
| 2026-05-04 13:16 | 43.69513 | 18.63443 | 35107 ft | 478 kts | 132° |
| 2026-05-04 13:16 | 43.64951 | 18.70125 | 35113 ft | 478 kts | 132° |
| 2026-05-04 13:17 | 43.60422 | 18.76746 | 35106 ft | 478 kts | 132° |
| 2026-05-04 13:17 | 43.55850 | 18.83420 | 35104 ft | 479 kts | 132° |
| 2026-05-04 13:18 | 43.51270 | 18.90086 | 35110 ft | 480 kts | 131° |
| 2026-05-04 13:18 | 43.46675 | 18.96757 | 35106 ft | 480 kts | 131° |
| 2026-05-04 13:19 | 43.42156 | 19.03435 | 35103 ft | 480 kts | 131° |
| 2026-05-04 13:19 | 43.37651 | 19.10204 | 35106 ft | 480 kts | 131° |
| 2026-05-04 13:20 | 43.33123 | 19.16965 | 35112 ft | 481 kts | 131° |
| 2026-05-04 13:20 | 43.28574 | 19.23695 | 35105 ft | 482 kts | 131° |
| 2026-05-04 13:21 | 43.24029 | 19.30390 | 35100 ft | 482 kts | 131° |
| 2026-05-04 13:21 | 43.19456 | 19.37119 | 35102 ft | 483 kts | 131° |
| 2026-05-04 13:22 | 43.14877 | 19.43849 | 35109 ft | 483 kts | 131° |
| 2026-05-04 13:22 | 43.11070 | 19.49429 | 35124 ft | 482 kts | 131° |
| 2026-05-04 13:23 | 43.05749 | 19.57221 | 35119 ft | 482 kts | 131° |
| 2026-05-04 13:23 | 43.01164 | 19.63920 | 35118 ft | 482 kts | 131° |
| 2026-05-04 13:24 | 42.96581 | 19.70604 | 35114 ft | 482 kts | 131° |
| 2026-05-04 13:24 | 42.92766 | 19.76149 | 35113 ft | 482 kts | 131° |
| 2026-05-04 13:25 | 42.85127 | 19.87219 | 35117 ft | 482 kts | 130° |
| 2026-05-04 13:25 | 42.80522 | 19.93878 | 35113 ft | 483 kts | 130° |
| 2026-05-04 13:26 | 42.76688 | 19.99411 | 35110 ft | 483 kts | 131° |
| 2026-05-04 13:26 | 42.72155 | 20.06155 | 35114 ft | 483 kts | 128° |
| 2026-05-04 13:27 | 42.67233 | 20.14379 | 35133 ft | 482 kts | 125° |
| 2026-05-04 13:27 | 42.63773 | 20.20306 | 35126 ft | 482 kts | 125° |
| 2026-05-04 13:28 | 42.59538 | 20.27371 | 35124 ft | 483 kts | 126° |
| 2026-05-04 13:28 | 42.55238 | 20.34391 | 35120 ft | 484 kts | 127° |
| 2026-05-04 13:29 | 42.50921 | 20.41410 | 35117 ft | 485 kts | 127° |
| 2026-05-04 13:29 | 42.46613 | 20.48430 | 35145 ft | 485 kts | 126° |
| 2026-05-04 13:30 | 42.42336 | 20.55404 | 35143 ft | 485 kts | 126° |
| 2026-05-04 13:30 | 42.38029 | 20.62423 | 35145 ft | 485 kts | 126° |
| 2026-05-04 13:31 | 42.33709 | 20.69425 | 35149 ft | 485 kts | 126° |
| 2026-05-04 13:31 | 42.29388 | 20.76413 | 35145 ft | 485 kts | 126° |
| 2026-05-04 13:32 | 42.25051 | 20.83395 | 35155 ft | 485 kts | 126° |
| 2026-05-04 13:32 | 42.20750 | 20.90311 | 35146 ft | 484 kts | 126° |
| 2026-05-04 13:33 | 42.16417 | 20.97271 | 35139 ft | 484 kts | 126° |
| 2026-05-04 13:33 | 42.12081 | 21.04216 | 35113 ft | 484 kts | 127° |
| 2026-05-04 13:34 | 42.07268 | 21.10612 | 35114 ft | 488 kts | 133° |
| 2026-05-04 13:34 | 42.02365 | 21.16839 | 35138 ft | 488 kts | 133° |
| 2026-05-04 13:35 | 41.94974 | 21.26221 | 35132 ft | 487 kts | 133° |
| 2026-05-04 13:36 | 41.90044 | 21.32448 | 35123 ft | 486 kts | 134° |
| 2026-05-04 13:36 | 41.85117 | 21.38660 | 35117 ft | 486 kts | 134° |
| 2026-05-04 13:37 | 41.80218 | 21.44826 | 35101 ft | 486 kts | 134° |
| 2026-05-04 13:37 | 41.75281 | 21.51014 | 35089 ft | 486 kts | 134° |
| 2026-05-04 13:38 | 41.70338 | 21.57210 | 35081 ft | 488 kts | 134° |
| 2026-05-04 13:38 | 41.65378 | 21.63413 | 35086 ft | 489 kts | 134° |
| 2026-05-04 13:39 | 41.60398 | 21.69603 | 35086 ft | 489 kts | 134° |
| 2026-05-04 13:39 | 41.55456 | 21.75755 | 35092 ft | 489 kts | 134° |
| 2026-05-04 13:40 | 41.50474 | 21.81943 | 35127 ft | 489 kts | 134° |
| 2026-05-04 13:40 | 41.45488 | 21.88109 | 35114 ft | 489 kts | 134° |
| 2026-05-04 13:41 | 41.40493 | 21.94269 | 35106 ft | 489 kts | 134° |
| 2026-05-04 13:41 | 41.35541 | 22.00381 | 35102 ft | 489 kts | 134° |
| 2026-05-04 13:42 | 41.28051 | 22.09606 | 35106 ft | 489 kts | 134° |
| 2026-05-04 13:42 | 41.23054 | 22.15734 | 35130 ft | 489 kts | 134° |
| 2026-05-04 13:43 | 41.18083 | 22.21808 | 35119 ft | 489 kts | 135° |
| 2026-05-04 13:43 | 41.12997 | 22.27794 | 35108 ft | 489 kts | 137° |
| 2026-05-04 13:44 | 41.07683 | 22.33444 | 35100 ft | 490 kts | 140° |
| 2026-05-04 13:44 | 41.02320 | 22.39014 | 35101 ft | 490 kts | 139° |
| 2026-05-04 13:45 | 40.97012 | 22.44661 | 35094 ft | 490 kts | 138° |
| 2026-05-04 13:45 | 40.91737 | 22.50348 | 35121 ft | 489 kts | 139° |
| 2026-05-04 13:46 | 40.86492 | 22.55978 | 35119 ft | 488 kts | 139° |
| 2026-05-04 13:46 | 40.81207 | 22.61598 | 35119 ft | 488 kts | 139° |
| 2026-05-04 13:47 | 40.75906 | 22.67208 | 35117 ft | 488 kts | 139° |
| 2026-05-04 13:47 | 40.70635 | 22.72798 | 35116 ft | 488 kts | 139° |
| 2026-05-04 13:48 | 40.65348 | 22.78399 | 35127 ft | 488 kts | 139° |
| 2026-05-04 13:48 | 40.60059 | 22.83990 | 35134 ft | 487 kts | 139° |
| 2026-05-04 13:49 | 40.54790 | 22.89548 | 35134 ft | 486 kts | 139° |
| 2026-05-04 13:49 | 40.49537 | 22.95073 | 35132 ft | 485 kts | 139° |
| 2026-05-04 13:50 | 40.43903 | 22.99904 | 35132 ft | 487 kts | 154° |
| 2026-05-04 13:50 | 40.37593 | 23.03118 | 35134 ft | 486 kts | 159° |
| 2026-05-04 13:51 | 40.31300 | 23.06251 | 35128 ft | 485 kts | 158° |
| 2026-05-04 13:51 | 40.24981 | 23.09406 | 35124 ft | 485 kts | 158° |
| 2026-05-04 13:52 | 40.15578 | 23.14073 | 35131 ft | 483 kts | 159° |
| 2026-05-04 13:53 | 40.09296 | 23.17176 | 35129 ft | 482 kts | 159° |
| 2026-05-04 13:53 | 40.03025 | 23.20269 | 35125 ft | 481 kts | 159° |
| 2026-05-04 13:54 | 39.93640 | 23.24881 | 35104 ft | 483 kts | 159° |
| 2026-05-04 13:54 | 39.87364 | 23.27958 | 34763 ft | 483 kts | 159° |
| 2026-05-04 13:55 | 39.84215 | 23.29501 | 33771 ft | 487 kts | 159° |
| 2026-05-04 13:55 | 39.77860 | 23.32616 | 30765 ft | 485 kts | 158° |
| 2026-05-04 13:55 | 39.74716 | 23.34155 | 28925 ft | 482 kts | 158° |
| 2026-05-04 13:56 | 39.71624 | 23.35671 | 26898 ft | 480 kts | 158° |
| 2026-05-04 13:56 | 39.68500 | 23.37200 | 25028 ft | 477 kts | 158° |
| 2026-05-04 13:56 | 39.62416 | 23.40159 | 21890 ft | 457 kts | 158° |
| 2026-05-04 13:57 | 39.59460 | 23.41590 | 20383 ft | 449 kts | 158° |
| 2026-05-04 13:57 | 39.56562 | 23.42990 | 18991 ft | 442 kts | 158° |
| 2026-05-04 13:58 | 39.48604 | 23.46837 | 17878 ft | 367 kts | 158° |
| 2026-05-04 13:58 | 39.44081 | 23.49025 | 17091 ft | 336 kts | 158° |
| 2026-05-04 13:58 | 39.41909 | 23.50078 | 16415 ft | 332 kts | 157° |
| 2026-05-04 13:59 | 39.39754 | 23.51125 | 15736 ft | 329 kts | 157° |
| 2026-05-04 13:59 | 39.37621 | 23.52160 | 15058 ft | 327 kts | 157° |
| 2026-05-04 13:59 | 39.33383 | 23.54210 | 13780 ft | 323 kts | 156° |
| 2026-05-04 14:00 | 39.31286 | 23.55224 | 13083 ft | 321 kts | 157° |
| 2026-05-04 14:00 | 39.27145 | 23.57218 | 11759 ft | 314 kts | 157° |
| 2026-05-04 14:00 | 39.25106 | 23.58198 | 11106 ft | 311 kts | 158° |
| 2026-05-04 14:01 | 39.23106 | 23.59158 | 10367 ft | 312 kts | 158° |
| 2026-05-04 14:01 | 39.21060 | 23.60142 | 9516 ft | 314 kts | 158° |
| 2026-05-04 14:01 | 39.16757 | 23.60601 | 7773 ft | 317 kts | 198° |
| 2026-05-04 14:02 | 39.14752 | 23.59471 | 6940 ft | 314 kts | 208° |
| 2026-05-04 14:02 | 39.12813 | 23.58199 | 6103 ft | 312 kts | 210° |
| 2026-05-04 14:02 | 39.10887 | 23.56932 | 5257 ft | 309 kts | 210° |
| 2026-05-04 14:02 | 39.08982 | 23.55679 | 4416 ft | 306 kts | 210° |
| 2026-05-04 14:03 | 39.07147 | 23.54477 | 3907 ft | 291 kts | 210° |
| 2026-05-04 14:03 | 39.05377 | 23.53324 | 3351 ft | 280 kts | 210° |
| 2026-05-04 14:03 | 39.03685 | 23.52223 | 2953 ft | 265 kts | 210° |
| 2026-05-04 14:03 | 39.02214 | 23.51004 | 2698 ft | 239 kts | 233° |
| 2026-05-04 14:04 | 39.02119 | 23.47605 | 2397 ft | 188 kts | 313° |
| 2026-05-04 14:04 | 39.03120 | 23.46680 | 2295 ft | 170 kts | 336° |
| 2026-05-04 14:04 | 39.04234 | 23.46422 | 2142 ft | 158 kts | 1° |
| 2026-05-04 14:05 | 39.06246 | 23.46980 | 1919 ft | 142 kts | 9° |
| 2026-05-04 14:05 | 39.07173 | 23.47253 | 1825 ft | 137 kts | 10° |
| 2026-05-04 14:05 | 39.08092 | 23.47522 | 1721 ft | 135 kts | 10° |
| 2026-05-04 14:06 | 39.09017 | 23.47704 | 1557 ft | 135 kts | 1° |
| 2026-05-04 14:06 | 39.09950 | 23.47746 | 1422 ft | 133 kts | 359° |
| 2026-05-04 14:06 | 39.10879 | 23.47799 | 1284 ft | 135 kts | 2° |
| 2026-05-04 14:06 | 39.11806 | 23.47934 | 1077 ft | 134 kts | 9° |
| 2026-05-04 14:07 | 39.12710 | 23.48213 | 941 ft | 135 kts | 13° |
| 2026-05-04 14:07 | 39.13607 | 23.48557 | 760 ft | 136 kts | 18° |
| 2026-05-04 14:07 | 39.14506 | 23.48929 | 558 ft | 139 kts | 18° |
| 2026-05-04 14:07 | 39.15426 | 23.49344 | 368 ft | 142 kts | 21° |
| 2026-05-04 14:08 | 39.16373 | 23.49761 | 199 ft | 146 kts | 20° |
| 2026-05-04 14:08 | 39.17333 | 23.50192 | 31 ft | 141 kts | 19° |
| 2026-05-04 14:08 | 39.18043 | 23.50506 | 46 ft | 66 kts | 18° |
| 2026-05-04 14:08 | 39.18208 | 23.50578 | 53 ft | 1 kts | 20° |
| 2026-05-04 14:09 | 39.18241 | 23.50592 | 55 ft | 0 kts | 15° |
| 2026-05-04 14:09 | 39.18246 | 23.50588 | 55 ft | 0 kts | 338° |
| 2026-05-04 14:10 | 39.18248 | 23.50598 | 50 ft | 1 kts | 78° |
| 2026-05-04 14:10 | 39.18195 | 23.50576 | 49 ft | 16 kts | 204° |
| 2026-05-04 14:10 | 39.18066 | 23.50512 | 46 ft | 22 kts | 201° |
| 2026-05-04 14:10 | 39.17956 | 23.50451 | 42 ft | 14 kts | 225° |
| 2026-05-04 14:11 | 39.17915 | 23.50361 | 42 ft | 6 kts | 250° |
| 2026-05-04 14:11 | 39.17898 | 23.50302 | 44 ft | 3 kts | 270° |
| 2026-05-04 14:11 | 39.17903 | 23.50278 | 46 ft | 6 kts | 290° |
| 2026-05-04 14:12 | 39.17908 | 23.50260 | 45 ft | 3 kts | 289° |
| 2026-05-04 14:12 | 39.17913 | 23.50243 | 51 ft | 1 kts | 288° |
| 2026-05-04 14:12 | 39.17917 | 23.50228 | 53 ft | 0 kts | 288° |